Site contains unofficial IBTrACS data. Visit the IBTrACS Website to access archived data.

1864 NOT_NAMED (1864102S07069)


IBTrACS version v04r00. Visit IBTrACS website for data access.
Please direct all questions to the IBTrACS Q and A forum

Storm track - Intensity - Wind Radii - Intensity Data - Source Data - All data

Summary Information

Storm ID 1864102S07069
Start Apr 11 06Z
End Apr 19 06Z
ATCF IDs
Track status Best track data.

Storm track plot

Map of storm track

Intensity plots

No Intensity information for this storm


Radial wind information

No radial wind information for this storm


Position and Intensity Table

BASIN ISO_TIME_________ NATURE LAT LON
degrees north degrees east
SI 1864-04-11 06:00:00 NR -6.80 68.70
SI 09:00:00 NR -6.93 68.85
SI 12:00:00 NR -7.06 69.00
SI 15:00:00 NR -7.19 69.15
SI 18:00:00 NR -7.31 69.30
SI 21:00:00 NR -7.44 69.45
SI 1864-04-12 00:00:00 NR -7.56 69.60
SI 03:00:00 NR -7.68 69.75
SI 06:00:00 NR -7.80 69.90
SI 09:00:00 NR -7.92 70.05
SI 12:00:00 NR -8.03 70.20
SI 15:00:00 NR -8.14 70.35
SI 18:00:00 NR -8.25 70.51
SI 21:00:00 NR -8.36 70.67
SI 1864-04-13 00:00:00 NR -8.47 70.84
SI 03:00:00 NR -8.58 71.01
SI 06:00:00 NR -8.70 71.20
SI 09:00:00 NR -8.83 71.41
SI 12:00:00 NR -8.96 71.64
SI 15:00:00 NR -9.09 71.87
SI 18:00:00 NR -9.22 72.11
SI 21:00:00 NR -9.34 72.34
SI 1864-04-14 00:00:00 NR -9.47 72.57
SI 03:00:00 NR -9.59 72.79
SI 06:00:00 NR -9.70 73.00
SI 09:00:00 NR -9.80 73.18
SI 12:00:00 NR -9.89 73.34
SI 15:00:00 NR -9.98 73.50
SI 18:00:00 NR -10.06 73.65
SI 21:00:00 NR -10.15 73.79
SI 1864-04-15 00:00:00 NR -10.23 73.92
SI 03:00:00 NR -10.31 74.06
SI 06:00:00 NR -10.40 74.20
SI 09:00:00 NR -10.49 74.33
SI 12:00:00 NR -10.58 74.46
SI 15:00:00 NR -10.68 74.60
SI 18:00:00 NR -10.78 74.73
SI 21:00:00 NR -10.88 74.88
SI 1864-04-16 00:00:00 NR -10.98 75.04
SI 03:00:00 NR -11.09 75.21
SI 06:00:00 NR -11.20 75.40
SI 09:00:00 NR -11.32 75.63
SI 12:00:00 NR -11.44 75.88
SI 15:00:00 NR -11.57 76.14
SI 18:00:00 NR -11.70 76.41
SI 21:00:00 NR -11.83 76.69
SI 1864-04-17 00:00:00 NR -11.96 76.97
SI 03:00:00 NR -12.08 77.24
SI 06:00:00 NR -12.20 77.50
SI 09:00:00 NR -12.30 77.72
SI 12:00:00 NR -12.40 77.93
SI 15:00:00 NR -12.50 78.13
SI 18:00:00 NR -12.59 78.33
SI 21:00:00 NR -12.69 78.53
SI 1864-04-18 00:00:00 NR -12.79 78.74
SI 03:00:00 NR -12.89 78.96
SI 06:00:00 NR -13.00 79.20
SI 09:00:00 NR -13.12 79.46
SI 12:00:00 NR -13.25 79.73
SI 15:00:00 NR -13.38 80.02
SI 18:00:00 NR -13.52 80.32
SI 21:00:00 NR -13.66 80.63
SI 1864-04-19 00:00:00 NR -13.80 80.95
SI 03:00:00 NR -13.95 81.27
SI 06:00:00 NR -14.10 81.60

Source Information

Agency Information
USA
TOKYO
CMA
HKO
NEWDELHI
REUNION WMO-Best-Tracks.txt:Line=573:xxxx864082
BOM
NADI
WELLINGTON
DS824
TD9636
TD9635
NEUMANN
MLC

All available IBTrACS Data

SEASON BASIN SUBBASIN ISO_TIME_________ NATURE LAT LON WMO AGENCY DIST2LAND LANDFALL IFLAG USA SSHS REUNION LAT REUNION LON REUNION TYPE REUNION TNUM STORM SPEED STORM DIR
Year degrees north degrees east km km 1 degrees north degrees east 1 kts degrees
1864 SI MM 1864-04-11 06:00:00 NR -6.80 68.70 reunion 1904 1902 _____O________ -1 -6.80 68.70 99 9.90 4 131
1864 SI MM 09:00:00 NR -6.93 68.85 1908 1898 _____P________ -1 -6.93 68.85 99 4 131
1864 SI MM 12:00:00 NR -7.06 69.00 1898 1896 _____P________ -1 -7.06 69.00 99 4 131
1864 SI MM 15:00:00 NR -7.19 69.15 1903 1894 _____P________ -1 -7.19 69.15 99 4 131
1864 SI MM 18:00:00 NR -7.31 69.30 1901 1900 _____P________ -1 -7.31 69.30 99 4 130
1864 SI MM 21:00:00 NR -7.44 69.45 1907 1897 _____P________ -1 -7.44 69.45 99 4 130
1864 SI MM 1864-04-12 00:00:00 NR -7.56 69.60 1897 1896 _____P________ -1 -7.56 69.60 99 4 130
1864 SI MM 03:00:00 NR -7.68 69.75 1904 1895 _____P________ -1 -7.68 69.75 99 4 129
1864 SI MM 06:00:00 NR -7.80 69.90 reunion 1903 1902 _____O________ -1 -7.80 69.90 99 9.90 4 128
1864 SI MM 09:00:00 NR -7.92 70.05 1902 1901 _____P________ -1 -7.92 70.05 99 4 128
1864 SI MM 12:00:00 NR -8.03 70.20 1909 1901 _____P________ -1 -8.03 70.20 99 4 127
1864 SI MM 15:00:00 NR -8.14 70.35 1909 1908 _____P________ -1 -8.14 70.35 99 4 126
1864 SI MM 18:00:00 NR -8.25 70.51 1916 1908 _____P________ -1 -8.25 70.51 99 4 125
1864 SI MM 21:00:00 NR -8.36 70.67 1916 1916 _____P________ -1 -8.36 70.67 99 4 124
1864 SI MM 1864-04-13 00:00:00 NR -8.47 70.84 1916 1916 _____P________ -1 -8.47 70.84 99 4 123
1864 SI MM 03:00:00 NR -8.58 71.01 1924 1924 _____P________ -1 -8.58 71.01 99 4 122
1864 SI MM 06:00:00 NR -8.70 71.20 reunion 1932 1926 _____O________ -1 -8.70 71.20 99 9.90 5 121
1864 SI MM 09:00:00 NR -8.83 71.41 1930 1928 _____P________ -1 -8.83 71.41 99 5 120
1864 SI MM 12:00:00 NR -8.96 71.64 1938 1927 _____P________ -1 -8.96 71.64 99 5 120
1864 SI MM 15:00:00 NR -9.09 71.87 1931 1926 _____P________ -1 -9.09 71.87 99 5 119
1864 SI MM 18:00:00 NR -9.22 72.11 1930 1925 _____P________ -1 -9.22 72.11 99 5 119
1864 SI MM 21:00:00 NR -9.34 72.34 1930 1930 _____P________ -1 -9.34 72.34 99 5 119
1864 SI MM 1864-04-14 00:00:00 NR -9.47 72.57 1935 1930 _____P________ -1 -9.47 72.57 99 5 119
1864 SI MM 03:00:00 NR -9.59 72.79 1935 1931 _____P________ -1 -9.59 72.79 99 5 119
1864 SI MM 06:00:00 NR -9.70 73.00 reunion 1936 1931 _____O________ -1 -9.70 73.00 99 9.90 4 119
1864 SI MM 09:00:00 NR -9.80 73.18 1937 1933 _____P________ -1 -9.80 73.18 99 4 120
1864 SI MM 12:00:00 NR -9.89 73.34 1943 1938 _____P________ -1 -9.89 73.34 99 4 120
1864 SI MM 15:00:00 NR -9.98 73.50 1944 1940 _____P________ -1 -9.98 73.50 99 3 120
1864 SI MM 18:00:00 NR -10.06 73.65 1950 1942 _____P________ -1 -10.06 73.65 99 3 121
1864 SI MM 21:00:00 NR -10.15 73.79 1942 1942 _____P________ -1 -10.15 73.79 99 3 121
1864 SI MM 1864-04-15 00:00:00 NR -10.23 73.92 1948 1944 _____P________ -1 -10.23 73.92 99 3 121
1864 SI MM 03:00:00 NR -10.31 74.06 1951 1951 _____P________ -1 -10.31 74.06 99 3 122
1864 SI MM 06:00:00 NR -10.40 74.20 reunion 1958 1954 _____O________ -1 -10.40 74.20 99 9.90 3 124
1864 SI MM 09:00:00 NR -10.49 74.33 1964 1961 _____P________ -1 -10.49 74.33 99 3 125
1864 SI MM 12:00:00 NR -10.58 74.46 1967 1964 _____P________ -1 -10.58 74.46 99 3 126
1864 SI MM 15:00:00 NR -10.68 74.60 1974 1971 _____P________ -1 -10.68 74.60 99 3 126
1864 SI MM 18:00:00 NR -10.78 74.73 1982 1978 _____P________ -1 -10.78 74.73 99 3 126
1864 SI MM 21:00:00 NR -10.88 74.88 1985 1982 _____P________ -1 -10.88 74.88 99 4 125
1864 SI MM 1864-04-16 00:00:00 NR -10.98 75.04 1992 1989 _____P________ -1 -10.98 75.04 99 4 123
1864 SI MM 03:00:00 NR -11.09 75.21 1996 1993 _____P________ -1 -11.09 75.21 99 4 121
1864 SI MM 06:00:00 NR -11.20 75.40 reunion 2000 1997 _____O________ -1 -11.20 75.40 99 9.90 5 119
1864 SI MM 09:00:00 NR -11.32 75.63 2005 2002 _____P________ -1 -11.32 75.63 99 5 118
1864 SI MM 12:00:00 NR -11.44 75.88 2007 2007 _____P________ -1 -11.44 75.88 99 6 117
1864 SI MM 15:00:00 NR -11.57 76.14 2023 2017 _____P________ -1 -11.57 76.14 99 6 116
1864 SI MM 18:00:00 NR -11.70 76.41 2026 2023 _____P________ -1 -11.70 76.41 99 6 116
1864 SI MM 21:00:00 NR -11.83 76.69 2029 2029 _____P________ -1 -11.83 76.69 99 6 115
1864 SI MM 1864-04-17 00:00:00 NR -11.96 76.97 2044 2040 _____P________ -1 -11.96 76.97 99 6 115
1864 SI MM 03:00:00 NR -12.08 77.24 2051 2047 _____P________ -1 -12.08 77.24 99 6 115
1864 SI MM 06:00:00 NR -12.20 77.50 reunion 2056 2054 _____O________ -1 -12.20 77.50 99 9.90 5 115
1864 SI MM 09:00:00 NR -12.30 77.72 2064 2062 _____P________ -1 -12.30 77.72 99 5 116
1864 SI MM 12:00:00 NR -12.40 77.93 2072 2070 _____P________ -1 -12.40 77.93 99 4 116
1864 SI MM 15:00:00 NR -12.50 78.13 2080 2078 _____P________ -1 -12.50 78.13 99 4 116
1864 SI MM 18:00:00 NR -12.59 78.33 2088 2085 _____P________ -1 -12.59 78.33 99 4 116
1864 SI MM 21:00:00 NR -12.69 78.53 2096 2094 _____P________ -1 -12.69 78.53 99 4 116
1864 SI MM 1864-04-18 00:00:00 NR -12.79 78.74 2105 2103 _____P________ -1 -12.79 78.74 99 5 116
1864 SI MM 03:00:00 NR -12.89 78.96 2113 2112 _____P________ -1 -12.89 78.96 99 5 116
1864 SI MM 06:00:00 NR -13.00 79.20 reunion 2123 2122 _____O________ -1 -13.00 79.20 99 9.90 5 116
1864 SI MM 09:00:00 NR -13.12 79.46 2132 2132 _____P________ -1 -13.12 79.46 99 6 115
1864 SI MM 12:00:00 NR -13.25 79.73 2142 2142 _____P________ -1 -13.25 79.73 99 6 115
1864 SI MM 15:00:00 NR -13.38 80.02 2163 2162 _____P________ -1 -13.38 80.02 99 6 115
1864 SI MM 18:00:00 NR -13.52 80.32 2173 2173 _____P________ -1 -13.52 80.32 99 7 115
1864 SI MM 21:00:00 NR -13.66 80.63 2195 2195 _____P________ -1 -13.66 80.63 99 7 115
1864 SI MM 1864-04-19 00:00:00 NR -13.80 80.95 2207 2207 _____P________ -1 -13.80 80.95 99 7 115
1864 SI MM 03:00:00 NR -13.95 81.27 2230 2230 _____P________ -1 -13.95 81.27 99 7 115
1864 SI MM 06:00:00 NR -14.10 81.60 2243 _____O________ -1 -14.10 81.60 99 9.90 7 115